sensor_id;sensor_type;location;lat;lon;timestamp;P1;durP1;ratioP1;P2;durP2;ratioP2
59607;SDS011;45426;44.726;10.390;2022-07-29T00:02:20;14.32;;;9.63;;
59607;SDS011;45426;44.726;10.390;2022-07-29T00:04:46;14.27;;;10.15;;
59607;SDS011;45426;44.726;10.390;2022-07-29T00:07:11;17.63;;;10.05;;
59607;SDS011;45426;44.726;10.390;2022-07-29T00:09:36;16.38;;;10.15;;
59607;SDS011;45426;44.726;10.390;2022-07-29T00:12:02;16.95;;;10.70;;
59607;SDS011;45426;44.726;10.390;2022-07-29T00:14:28;17.77;;;10.50;;
59607;SDS011;45426;44.726;10.390;2022-07-29T00:16:54;15.48;;;10.13;;
59607;SDS011;45426;44.726;10.390;2022-07-29T00:19:19;16.38;;;11.27;;
59607;SDS011;45426;44.726;10.390;2022-07-29T00:21:45;18.02;;;11.57;;
59607;SDS011;45426;44.726;10.390;2022-07-29T00:24:10;19.10;;;11.00;;
59607;SDS011;45426;44.726;10.390;2022-07-29T00:26:36;15.48;;;10.75;;
59607;SDS011;45426;44.726;10.390;2022-07-29T00:29:03;17.20;;;10.80;;
59607;SDS011;45426;44.726;10.390;2022-07-29T00:31:29;15.32;;;10.05;;
59607;SDS011;45426;44.726;10.390;2022-07-29T00:33:54;24.30;;;8.85;;
59607;SDS011;45426;44.726;10.390;2022-07-29T00:36:20;13.52;;;8.57;;
59607;SDS011;45426;44.726;10.390;2022-07-29T00:38:49;16.40;;;10.57;;
59607;SDS011;45426;44.726;10.390;2022-07-29T00:41:16;17.25;;;11.23;;
59607;SDS011;45426;44.726;10.390;2022-07-29T00:43:42;17.65;;;10.25;;
59607;SDS011;45426;44.726;10.390;2022-07-29T00:46:08;16.05;;;10.07;;
59607;SDS011;45426;44.726;10.390;2022-07-29T00:48:34;12.63;;;8.90;;
59607;SDS011;45426;44.726;10.390;2022-07-29T00:50:59;13.38;;;8.55;;
59607;SDS011;45426;44.726;10.390;2022-07-29T00:53:27;12.45;;;8.18;;
59607;SDS011;45426;44.726;10.390;2022-07-29T00:55:54;12.52;;;8.60;;
59607;SDS011;45426;44.726;10.390;2022-07-29T00:58:20;13.85;;;8.45;;
59607;SDS011;45426;44.726;10.390;2022-07-29T01:00:46;14.65;;;10.20;;
59607;SDS011;45426;44.726;10.390;2022-07-29T01:03:12;16.20;;;10.13;;
59607;SDS011;45426;44.726;10.390;2022-07-29T01:05:38;14.32;;;10.00;;
59607;SDS011;45426;44.726;10.390;2022-07-29T01:08:05;15.57;;;10.10;;
59607;SDS011;45426;44.726;10.390;2022-07-29T01:10:31;14.63;;;9.35;;
59607;SDS011;45426;44.726;10.390;2022-07-29T01:12:58;15.90;;;9.25;;
59607;SDS011;45426;44.726;10.390;2022-07-29T01:15:26;14.85;;;9.75;;
59607;SDS011;45426;44.726;10.390;2022-07-29T01:17:54;14.35;;;9.15;;
59607;SDS011;45426;44.726;10.390;2022-07-29T01:20:38;14.15;;;9.05;;
59607;SDS011;45426;44.726;10.390;2022-07-29T01:31:35;12.57;;;8.77;;
59607;SDS011;45426;44.726;10.390;2022-07-29T01:34:21;16.77;;;9.18;;
59607;SDS011;45426;44.726;10.390;2022-07-29T01:39:51;13.35;;;8.85;;
59607;SDS011;45426;44.726;10.390;2022-07-29T01:45:03;13.55;;;9.07;;
59607;SDS011;45426;44.726;10.390;2022-07-29T01:48:19;14.52;;;9.02;;
59607;SDS011;45426;44.726;10.390;2022-07-29T01:50:48;13.18;;;8.82;;
59607;SDS011;45426;44.726;10.390;2022-07-29T01:53:30;16.20;;;8.82;;
59607;SDS011;45426;44.726;10.390;2022-07-29T01:56:00;14.00;;;9.63;;
59607;SDS011;45426;44.726;10.390;2022-07-29T01:58:28;17.50;;;10.43;;
59607;SDS011;45426;44.726;10.390;2022-07-29T02:00:57;16.33;;;10.90;;
59607;SDS011;45426;44.726;10.390;2022-07-29T02:03:23;15.63;;;10.45;;
59607;SDS011;45426;44.726;10.390;2022-07-29T02:05:51;15.35;;;10.75;;
59607;SDS011;45426;44.726;10.390;2022-07-29T02:08:21;17.38;;;11.10;;
59607;SDS011;45426;44.726;10.390;2022-07-29T02:10:48;17.35;;;11.63;;
59607;SDS011;45426;44.726;10.390;2022-07-29T02:13:15;15.93;;;11.00;;
59607;SDS011;45426;44.726;10.390;2022-07-29T02:15:43;18.90;;;11.43;;
59607;SDS011;45426;44.726;10.390;2022-07-29T02:18:16;17.98;;;10.95;;
59607;SDS011;45426;44.726;10.390;2022-07-29T02:20:47;18.48;;;11.25;;
59607;SDS011;45426;44.726;10.390;2022-07-29T02:23:14;17.20;;;11.15;;
59607;SDS011;45426;44.726;10.390;2022-07-29T02:25:44;17.20;;;10.77;;
59607;SDS011;45426;44.726;10.390;2022-07-29T02:28:12;17.83;;;11.77;;
59607;SDS011;45426;44.726;10.390;2022-07-29T02:30:40;25.08;;;13.00;;
59607;SDS011;45426;44.726;10.390;2022-07-29T02:33:07;18.92;;;13.25;;
59607;SDS011;45426;44.726;10.390;2022-07-29T02:35:34;19.00;;;12.30;;
59607;SDS011;45426;44.726;10.390;2022-07-29T02:38:01;20.83;;;14.80;;
59607;SDS011;45426;44.726;10.390;2022-07-29T02:43:13;24.73;;;14.73;;
59607;SDS011;45426;44.726;10.390;2022-07-29T02:45:39;21.10;;;15.10;;
59607;SDS011;45426;44.726;10.390;2022-07-29T02:48:06;20.63;;;15.13;;
59607;SDS011;45426;44.726;10.390;2022-07-29T02:50:38;23.55;;;15.85;;
59607;SDS011;45426;44.726;10.390;2022-07-29T02:53:14;23.85;;;17.25;;
59607;SDS011;45426;44.726;10.390;2022-07-29T02:55:43;24.65;;;17.15;;
59607;SDS011;45426;44.726;10.390;2022-07-29T03:00:51;26.55;;;17.77;;
59607;SDS011;45426;44.726;10.390;2022-07-29T03:03:19;24.50;;;15.93;;
59607;SDS011;45426;44.726;10.390;2022-07-29T03:05:46;21.60;;;15.38;;
59607;SDS011;45426;44.726;10.390;2022-07-29T03:08:12;24.20;;;15.77;;
59607;SDS011;45426;44.726;10.390;2022-07-29T03:10:40;24.42;;;16.40;;
59607;SDS011;45426;44.726;10.390;2022-07-29T03:13:10;25.55;;;17.75;;
59607;SDS011;45426;44.726;10.390;2022-07-29T03:15:38;25.65;;;17.38;;
59607;SDS011;45426;44.726;10.390;2022-07-29T03:18:03;25.30;;;17.38;;
59607;SDS011;45426;44.726;10.390;2022-07-29T03:20:30;23.73;;;17.27;;
59607;SDS011;45426;44.726;10.390;2022-07-29T03:22:56;23.95;;;16.52;;
59607;SDS011;45426;44.726;10.390;2022-07-29T03:25:21;23.10;;;16.25;;
59607;SDS011;45426;44.726;10.390;2022-07-29T03:27:47;20.35;;;13.65;;
59607;SDS011;45426;44.726;10.390;2022-07-29T03:30:13;23.13;;;13.73;;
59607;SDS011;45426;44.726;10.390;2022-07-29T03:32:40;20.00;;;12.57;;
59607;SDS011;45426;44.726;10.390;2022-07-29T03:35:06;18.95;;;12.82;;
59607;SDS011;45426;44.726;10.390;2022-07-29T03:37:32;18.38;;;11.98;;
59607;SDS011;45426;44.726;10.390;2022-07-29T03:39:58;17.25;;;11.43;;
59607;SDS011;45426;44.726;10.390;2022-07-29T03:42:27;14.85;;;10.10;;
59607;SDS011;45426;44.726;10.390;2022-07-29T03:44:55;18.17;;;11.45;;
59607;SDS011;45426;44.726;10.390;2022-07-29T03:47:23;19.60;;;13.23;;
59607;SDS011;45426;44.726;10.390;2022-07-29T03:49:52;19.30;;;13.35;;
59607;SDS011;45426;44.726;10.390;2022-07-29T03:52:19;18.35;;;12.38;;
59607;SDS011;45426;44.726;10.390;2022-07-29T03:54:46;21.17;;;13.10;;
59607;SDS011;45426;44.726;10.390;2022-07-29T03:57:12;18.17;;;11.80;;
59607;SDS011;45426;44.726;10.390;2022-07-29T03:59:40;17.17;;;11.23;;
59607;SDS011;45426;44.726;10.390;2022-07-29T04:02:08;18.67;;;11.52;;
59607;SDS011;45426;44.726;10.390;2022-07-29T04:04:35;17.38;;;11.20;;
59607;SDS011;45426;44.726;10.390;2022-07-29T04:07:01;15.65;;;10.60;;
59607;SDS011;45426;44.726;10.390;2022-07-29T04:09:27;18.30;;;11.10;;
59607;SDS011;45426;44.726;10.390;2022-07-29T04:11:53;17.33;;;11.10;;
59607;SDS011;45426;44.726;10.390;2022-07-29T04:14:18;17.27;;;10.95;;
59607;SDS011;45426;44.726;10.390;2022-07-29T04:16:45;19.70;;;11.55;;
59607;SDS011;45426;44.726;10.390;2022-07-29T04:19:10;20.73;;;12.00;;
59607;SDS011;45426;44.726;10.390;2022-07-29T04:21:37;19.55;;;12.13;;
59607;SDS011;45426;44.726;10.390;2022-07-29T04:24:05;16.52;;;12.07;;
59607;SDS011;45426;44.726;10.390;2022-07-29T04:26:31;20.00;;;12.82;;
59607;SDS011;45426;44.726;10.390;2022-07-29T04:28:57;21.30;;;12.55;;
59607;SDS011;45426;44.726;10.390;2022-07-29T04:31:22;19.77;;;11.63;;
59607;SDS011;45426;44.726;10.390;2022-07-29T04:33:48;19.48;;;11.82;;
59607;SDS011;45426;44.726;10.390;2022-07-29T04:36:13;19.42;;;11.32;;
59607;SDS011;45426;44.726;10.390;2022-07-29T04:38:38;15.88;;;10.93;;
59607;SDS011;45426;44.726;10.390;2022-07-29T04:41:04;18.42;;;11.85;;
59607;SDS011;45426;44.726;10.390;2022-07-29T04:43:32;21.40;;;11.73;;
59607;SDS011;45426;44.726;10.390;2022-07-29T04:45:58;19.83;;;11.68;;
59607;SDS011;45426;44.726;10.390;2022-07-29T04:48:24;17.63;;;11.32;;
59607;SDS011;45426;44.726;10.390;2022-07-29T04:50:50;17.85;;;11.93;;
59607;SDS011;45426;44.726;10.390;2022-07-29T04:53:15;20.13;;;11.48;;
59607;SDS011;45426;44.726;10.390;2022-07-29T04:55:41;19.25;;;11.50;;
59607;SDS011;45426;44.726;10.390;2022-07-29T04:58:06;20.75;;;12.63;;
59607;SDS011;45426;44.726;10.390;2022-07-29T05:00:32;22.15;;;12.60;;
59607;SDS011;45426;44.726;10.390;2022-07-29T05:02:57;22.00;;;12.68;;
59607;SDS011;45426;44.726;10.390;2022-07-29T05:05:23;20.80;;;12.57;;
59607;SDS011;45426;44.726;10.390;2022-07-29T05:07:48;22.90;;;13.45;;
59607;SDS011;45426;44.726;10.390;2022-07-29T05:10:14;20.27;;;13.50;;
59607;SDS011;45426;44.726;10.390;2022-07-29T05:12:39;21.40;;;13.10;;
59607;SDS011;45426;44.726;10.390;2022-07-29T05:15:05;20.70;;;13.93;;
59607;SDS011;45426;44.726;10.390;2022-07-29T05:17:30;19.35;;;14.45;;
59607;SDS011;45426;44.726;10.390;2022-07-29T05:19:56;21.02;;;14.13;;
59607;SDS011;45426;44.726;10.390;2022-07-29T05:22:21;22.95;;;14.88;;
59607;SDS011;45426;44.726;10.390;2022-07-29T05:24:47;20.70;;;15.05;;
59607;SDS011;45426;44.726;10.390;2022-07-29T05:27:12;21.42;;;14.68;;
59607;SDS011;45426;44.726;10.390;2022-07-29T05:29:38;21.70;;;15.50;;
59607;SDS011;45426;44.726;10.390;2022-07-29T05:32:04;19.67;;;13.90;;
59607;SDS011;45426;44.726;10.390;2022-07-29T05:34:30;22.17;;;14.40;;
59607;SDS011;45426;44.726;10.390;2022-07-29T05:36:55;20.45;;;13.52;;
59607;SDS011;45426;44.726;10.390;2022-07-29T05:39:21;19.13;;;14.35;;
59607;SDS011;45426;44.726;10.390;2022-07-29T05:41:47;21.83;;;13.57;;
59607;SDS011;45426;44.726;10.390;2022-07-29T05:44:12;19.63;;;13.82;;
59607;SDS011;45426;44.726;10.390;2022-07-29T05:46:38;20.95;;;13.57;;
59607;SDS011;45426;44.726;10.390;2022-07-29T05:49:04;20.70;;;13.38;;
59607;SDS011;45426;44.726;10.390;2022-07-29T05:51:31;20.45;;;13.00;;
59607;SDS011;45426;44.726;10.390;2022-07-29T05:53:57;21.73;;;12.65;;
59607;SDS011;45426;44.726;10.390;2022-07-29T05:56:22;20.05;;;12.75;;
59607;SDS011;45426;44.726;10.390;2022-07-29T05:58:48;17.90;;;11.20;;
59607;SDS011;45426;44.726;10.390;2022-07-29T06:01:13;16.10;;;11.07;;
59607;SDS011;45426;44.726;10.390;2022-07-29T06:03:39;15.93;;;10.15;;
59607;SDS011;45426;44.726;10.390;2022-07-29T06:06:07;14.27;;;9.48;;
59607;SDS011;45426;44.726;10.390;2022-07-29T06:08:32;17.05;;;9.38;;
59607;SDS011;45426;44.726;10.390;2022-07-29T06:11:01;14.30;;;9.15;;
59607;SDS011;45426;44.726;10.390;2022-07-29T06:13:27;15.13;;;8.90;;
59607;SDS011;45426;44.726;10.390;2022-07-29T06:15:53;13.05;;;7.70;;
59607;SDS011;45426;44.726;10.390;2022-07-29T06:18:18;13.73;;;8.02;;
59607;SDS011;45426;44.726;10.390;2022-07-29T06:20:45;14.30;;;7.50;;
59607;SDS011;45426;44.726;10.390;2022-07-29T06:23:11;14.38;;;7.90;;
59607;SDS011;45426;44.726;10.390;2022-07-29T06:25:37;14.73;;;7.70;;
59607;SDS011;45426;44.726;10.390;2022-07-29T06:28:04;11.63;;;7.20;;
59607;SDS011;45426;44.726;10.390;2022-07-29T06:30:29;11.73;;;7.53;;
59607;SDS011;45426;44.726;10.390;2022-07-29T06:32:55;15.98;;;8.25;;
59607;SDS011;45426;44.726;10.390;2022-07-29T06:35:21;13.00;;;7.45;;
59607;SDS011;45426;44.726;10.390;2022-07-29T06:37:46;13.82;;;7.97;;
59607;SDS011;45426;44.726;10.390;2022-07-29T06:40:12;16.73;;;8.38;;
59607;SDS011;45426;44.726;10.390;2022-07-29T06:42:56;10.95;;;7.18;;
59607;SDS011;45426;44.726;10.390;2022-07-29T06:45:21;20.38;;;7.60;;
59607;SDS011;45426;44.726;10.390;2022-07-29T06:47:47;11.05;;;7.18;;
59607;SDS011;45426;44.726;10.390;2022-07-29T06:50:13;13.05;;;7.15;;
59607;SDS011;45426;44.726;10.390;2022-07-29T06:52:39;13.35;;;6.90;;
59607;SDS011;45426;44.726;10.390;2022-07-29T06:55:06;11.93;;;7.20;;
59607;SDS011;45426;44.726;10.390;2022-07-29T06:57:32;12.05;;;7.57;;
59607;SDS011;45426;44.726;10.390;2022-07-29T06:59:57;14.25;;;8.07;;
59607;SDS011;45426;44.726;10.390;2022-07-29T07:02:23;13.85;;;8.13;;
59607;SDS011;45426;44.726;10.390;2022-07-29T07:04:48;12.63;;;7.75;;
59607;SDS011;45426;44.726;10.390;2022-07-29T07:07:14;12.20;;;7.53;;
59607;SDS011;45426;44.726;10.390;2022-07-29T07:09:40;13.30;;;8.18;;
59607;SDS011;45426;44.726;10.390;2022-07-29T07:12:10;11.98;;;7.95;;
59607;SDS011;45426;44.726;10.390;2022-07-29T07:14:36;13.18;;;8.10;;
59607;SDS011;45426;44.726;10.390;2022-07-29T07:17:01;15.02;;;8.40;;
59607;SDS011;45426;44.726;10.390;2022-07-29T07:19:28;13.07;;;9.13;;
59607;SDS011;45426;44.726;10.390;2022-07-29T07:21:54;12.70;;;8.82;;
59607;SDS011;45426;44.726;10.390;2022-07-29T07:24:19;13.75;;;9.05;;
59607;SDS011;45426;44.726;10.390;2022-07-29T07:26:45;12.02;;;9.18;;
59607;SDS011;45426;44.726;10.390;2022-07-29T07:29:10;11.70;;;8.68;;
59607;SDS011;45426;44.726;10.390;2022-07-29T07:31:36;14.13;;;10.43;;
59607;SDS011;45426;44.726;10.390;2022-07-29T07:34:02;16.65;;;11.35;;
59607;SDS011;45426;44.726;10.390;2022-07-29T07:36:28;15.23;;;9.80;;
59607;SDS011;45426;44.726;10.390;2022-07-29T07:38:54;14.52;;;10.13;;
59607;SDS011;45426;44.726;10.390;2022-07-29T07:41:20;14.20;;;10.55;;
59607;SDS011;45426;44.726;10.390;2022-07-29T07:43:46;13.52;;;10.32;;
59607;SDS011;45426;44.726;10.390;2022-07-29T07:46:11;15.77;;;10.55;;
59607;SDS011;45426;44.726;10.390;2022-07-29T07:48:37;12.70;;;9.65;;
59607;SDS011;45426;44.726;10.390;2022-07-29T07:51:02;13.98;;;10.20;;
59607;SDS011;45426;44.726;10.390;2022-07-29T07:53:28;14.63;;;9.10;;
59607;SDS011;45426;44.726;10.390;2022-07-29T07:55:54;14.35;;;10.02;;
59607;SDS011;45426;44.726;10.390;2022-07-29T07:58:20;15.63;;;9.25;;
59607;SDS011;45426;44.726;10.390;2022-07-29T08:00:45;15.05;;;9.88;;
59607;SDS011;45426;44.726;10.390;2022-07-29T08:03:11;13.27;;;9.07;;
59607;SDS011;45426;44.726;10.390;2022-07-29T08:05:38;12.70;;;8.55;;
59607;SDS011;45426;44.726;10.390;2022-07-29T08:08:05;11.07;;;8.20;;
59607;SDS011;45426;44.726;10.390;2022-07-29T08:10:30;14.90;;;9.10;;
59607;SDS011;45426;44.726;10.390;2022-07-29T08:13:14;12.63;;;8.10;;
59607;SDS011;45426;44.726;10.390;2022-07-29T08:15:40;11.35;;;7.30;;
59607;SDS011;45426;44.726;10.390;2022-07-29T08:18:06;10.93;;;8.00;;
59607;SDS011;45426;44.726;10.390;2022-07-29T08:20:32;11.45;;;7.38;;
59607;SDS011;45426;44.726;10.390;2022-07-29T08:23:00;11.95;;;7.15;;
59607;SDS011;45426;44.726;10.390;2022-07-29T08:25:26;12.40;;;8.10;;
59607;SDS011;45426;44.726;10.390;2022-07-29T08:27:52;12.90;;;8.75;;
59607;SDS011;45426;44.726;10.390;2022-07-29T08:30:17;12.60;;;8.90;;
59607;SDS011;45426;44.726;10.390;2022-07-29T08:32:43;14.88;;;8.15;;
59607;SDS011;45426;44.726;10.390;2022-07-29T08:35:08;14.30;;;7.57;;
59607;SDS011;45426;44.726;10.390;2022-07-29T08:37:34;15.90;;;7.43;;
59607;SDS011;45426;44.726;10.390;2022-07-29T08:39:59;10.25;;;6.85;;
59607;SDS011;45426;44.726;10.390;2022-07-29T08:42:25;10.88;;;6.88;;
59607;SDS011;45426;44.726;10.390;2022-07-29T08:44:50;13.90;;;7.03;;
59607;SDS011;45426;44.726;10.390;2022-07-29T08:47:16;11.30;;;8.10;;
59607;SDS011;45426;44.726;10.390;2022-07-29T08:49:42;11.10;;;6.70;;
59607;SDS011;45426;44.726;10.390;2022-07-29T08:52:09;12.63;;;7.40;;
59607;SDS011;45426;44.726;10.390;2022-07-29T08:54:36;11.57;;;6.32;;
59607;SDS011;45426;44.726;10.390;2022-07-29T08:57:03;11.77;;;7.05;;
59607;SDS011;45426;44.726;10.390;2022-07-29T08:59:29;11.73;;;7.30;;
59607;SDS011;45426;44.726;10.390;2022-07-29T09:01:59;11.95;;;7.63;;
59607;SDS011;45426;44.726;10.390;2022-07-29T09:04:26;12.48;;;6.68;;
59607;SDS011;45426;44.726;10.390;2022-07-29T09:06:54;11.10;;;6.43;;
59607;SDS011;45426;44.726;10.390;2022-07-29T09:09:23;11.45;;;6.95;;
59607;SDS011;45426;44.726;10.390;2022-07-29T09:11:49;13.65;;;8.02;;
59607;SDS011;45426;44.726;10.390;2022-07-29T09:14:15;13.43;;;8.57;;
59607;SDS011;45426;44.726;10.390;2022-07-29T09:16:47;13.55;;;8.75;;
59607;SDS011;45426;44.726;10.390;2022-07-29T09:19:22;16.95;;;8.48;;
59607;SDS011;45426;44.726;10.390;2022-07-29T09:21:51;14.23;;;7.60;;
59607;SDS011;45426;44.726;10.390;2022-07-29T09:24:29;12.65;;;7.80;;
59607;SDS011;45426;44.726;10.390;2022-07-29T09:27:17;13.38;;;7.20;;
59607;SDS011;45426;44.726;10.390;2022-07-29T09:29:43;10.80;;;7.07;;
59607;SDS011;45426;44.726;10.390;2022-07-29T09:32:09;11.77;;;7.38;;
59607;SDS011;45426;44.726;10.390;2022-07-29T09:34:35;11.43;;;7.22;;
59607;SDS011;45426;44.726;10.390;2022-07-29T09:37:01;11.68;;;6.13;;
59607;SDS011;45426;44.726;10.390;2022-07-29T09:39:28;12.98;;;6.28;;
59607;SDS011;45426;44.726;10.390;2022-07-29T09:41:59;10.77;;;6.60;;
59607;SDS011;45426;44.726;10.390;2022-07-29T09:44:45;10.25;;;6.30;;
59607;SDS011;45426;44.726;10.390;2022-07-29T09:47:13;10.10;;;6.73;;
59607;SDS011;45426;44.726;10.390;2022-07-29T09:50:00;10.23;;;6.50;;
59607;SDS011;45426;44.726;10.390;2022-07-29T09:52:26;10.80;;;6.18;;
59607;SDS011;45426;44.726;10.390;2022-07-29T09:54:52;10.75;;;6.07;;
59607;SDS011;45426;44.726;10.390;2022-07-29T09:57:26;9.85;;;5.95;;
59607;SDS011;45426;44.726;10.390;2022-07-29T09:59:58;11.65;;;6.45;;
59607;SDS011;45426;44.726;10.390;2022-07-29T10:02:33;9.55;;;5.32;;
59607;SDS011;45426;44.726;10.390;2022-07-29T10:05:00;10.60;;;5.60;;
59607;SDS011;45426;44.726;10.390;2022-07-29T10:10:39;8.77;;;5.35;;
59607;SDS011;45426;44.726;10.390;2022-07-29T10:13:10;12.70;;;5.95;;
59607;SDS011;45426;44.726;10.390;2022-07-29T10:15:38;11.43;;;6.80;;
59607;SDS011;45426;44.726;10.390;2022-07-29T10:18:09;10.02;;;6.30;;
59607;SDS011;45426;44.726;10.390;2022-07-29T10:20:37;9.95;;;5.25;;
59607;SDS011;45426;44.726;10.390;2022-07-29T10:23:03;9.85;;;5.40;;
59607;SDS011;45426;44.726;10.390;2022-07-29T10:25:29;10.50;;;4.93;;
59607;SDS011;45426;44.726;10.390;2022-07-29T10:27:54;7.38;;;4.25;;
59607;SDS011;45426;44.726;10.390;2022-07-29T10:30:20;7.85;;;4.07;;
59607;SDS011;45426;44.726;10.390;2022-07-29T10:38:30;7.40;;;4.70;;
59607;SDS011;45426;44.726;10.390;2022-07-29T10:46:49;11.10;;;4.90;;
59607;SDS011;45426;44.726;10.390;2022-07-29T10:49:16;10.18;;;5.18;;
59607;SDS011;45426;44.726;10.390;2022-07-29T10:54:46;7.40;;;4.18;;
59607;SDS011;45426;44.726;10.390;2022-07-29T11:05:08;7.70;;;4.25;;
59607;SDS011;45426;44.726;10.390;2022-07-29T11:07:36;7.88;;;3.95;;
59607;SDS011;45426;44.726;10.390;2022-07-29T11:15:09;7.32;;;3.95;;
59607;SDS011;45426;44.726;10.390;2022-07-29T11:25:44;7.72;;;3.70;;
59607;SDS011;45426;44.726;10.390;2022-07-29T11:28:13;7.63;;;4.03;;
59607;SDS011;45426;44.726;10.390;2022-07-29T11:30:51;6.63;;;3.73;;
59607;SDS011;45426;44.726;10.390;2022-07-29T11:33:27;7.10;;;3.80;;
59607;SDS011;45426;44.726;10.390;2022-07-29T11:36:27;5.95;;;3.60;;
59607;SDS011;45426;44.726;10.390;2022-07-29T11:38:45;5.75;;;3.70;;
59607;SDS011;45426;44.726;10.390;2022-07-29T11:43:46;6.22;;;3.85;;
59607;SDS011;45426;44.726;10.390;2022-07-29T11:46:12;7.10;;;3.53;;
59607;SDS011;45426;44.726;10.390;2022-07-29T11:48:42;7.07;;;4.00;;
59607;SDS011;45426;44.726;10.390;2022-07-29T11:51:09;6.40;;;3.90;;
59607;SDS011;45426;44.726;10.390;2022-07-29T11:53:36;9.35;;;4.28;;
59607;SDS011;45426;44.726;10.390;2022-07-29T11:56:03;8.55;;;4.53;;
59607;SDS011;45426;44.726;10.390;2022-07-29T11:58:32;7.80;;;3.90;;
59607;SDS011;45426;44.726;10.390;2022-07-29T12:00:58;8.63;;;4.03;;
59607;SDS011;45426;44.726;10.390;2022-07-29T12:03:26;5.68;;;3.60;;
59607;SDS011;45426;44.726;10.390;2022-07-29T12:05:52;7.10;;;3.70;;
59607;SDS011;45426;44.726;10.390;2022-07-29T12:08:19;8.50;;;3.90;;
59607;SDS011;45426;44.726;10.390;2022-07-29T12:10:47;6.28;;;3.85;;
59607;SDS011;45426;44.726;10.390;2022-07-29T12:13:14;7.28;;;3.50;;
59607;SDS011;45426;44.726;10.390;2022-07-29T12:15:42;6.80;;;3.75;;
59607;SDS011;45426;44.726;10.390;2022-07-29T12:18:16;6.68;;;3.78;;
59607;SDS011;45426;44.726;10.390;2022-07-29T12:20:43;7.05;;;4.00;;
59607;SDS011;45426;44.726;10.390;2022-07-29T12:23:09;8.35;;;3.97;;
59607;SDS011;45426;44.726;10.390;2022-07-29T12:25:37;10.43;;;4.05;;
59607;SDS011;45426;44.726;10.390;2022-07-29T12:28:05;6.95;;;3.80;;
59607;SDS011;45426;44.726;10.390;2022-07-29T12:30:36;9.13;;;4.10;;
59607;SDS011;45426;44.726;10.390;2022-07-29T12:33:10;7.28;;;3.80;;
59607;SDS011;45426;44.726;10.390;2022-07-29T12:35:47;9.35;;;3.75;;
59607;SDS011;45426;44.726;10.390;2022-07-29T12:38:15;6.22;;;4.15;;
59607;SDS011;45426;44.726;10.390;2022-07-29T12:40:42;8.52;;;3.85;;
59607;SDS011;45426;44.726;10.390;2022-07-29T12:43:13;7.18;;;3.95;;
59607;SDS011;45426;44.726;10.390;2022-07-29T12:45:47;7.47;;;4.40;;
59607;SDS011;45426;44.726;10.390;2022-07-29T12:48:17;7.25;;;4.18;;
59607;SDS011;45426;44.726;10.390;2022-07-29T12:50:59;6.97;;;4.00;;
59607;SDS011;45426;44.726;10.390;2022-07-29T12:53:26;9.43;;;3.92;;
59607;SDS011;45426;44.726;10.390;2022-07-29T12:55:53;7.57;;;3.83;;
59607;SDS011;45426;44.726;10.390;2022-07-29T12:58:39;9.65;;;4.32;;
59607;SDS011;45426;44.726;10.390;2022-07-29T13:01:07;8.70;;;4.10;;
59607;SDS011;45426;44.726;10.390;2022-07-29T13:03:43;7.32;;;3.88;;
59607;SDS011;45426;44.726;10.390;2022-07-29T13:06:34;7.30;;;4.20;;
59607;SDS011;45426;44.726;10.390;2022-07-29T13:11:37;8.30;;;4.00;;
59607;SDS011;45426;44.726;10.390;2022-07-29T13:14:08;7.80;;;3.80;;
59607;SDS011;45426;44.726;10.390;2022-07-29T13:16:36;7.90;;;4.32;;
59607;SDS011;45426;44.726;10.390;2022-07-29T13:19:31;10.30;;;4.00;;
59607;SDS011;45426;44.726;10.390;2022-07-29T13:22:11;7.95;;;3.85;;
59607;SDS011;45426;44.726;10.390;2022-07-29T13:24:51;7.90;;;3.80;;
59607;SDS011;45426;44.726;10.390;2022-07-29T13:27:17;6.90;;;4.13;;
59607;SDS011;45426;44.726;10.390;2022-07-29T13:29:44;8.50;;;4.20;;
59607;SDS011;45426;44.726;10.390;2022-07-29T13:32:09;7.88;;;4.25;;
59607;SDS011;45426;44.726;10.390;2022-07-29T13:34:35;9.52;;;4.05;;
59607;SDS011;45426;44.726;10.390;2022-07-29T13:37:00;8.50;;;4.25;;
59607;SDS011;45426;44.726;10.390;2022-07-29T13:39:26;7.22;;;3.85;;
59607;SDS011;45426;44.726;10.390;2022-07-29T13:41:51;13.48;;;4.72;;
59607;SDS011;45426;44.726;10.390;2022-07-29T13:44:17;7.70;;;3.72;;
59607;SDS011;45426;44.726;10.390;2022-07-29T13:46:42;7.50;;;4.00;;
59607;SDS011;45426;44.726;10.390;2022-07-29T13:49:08;9.00;;;4.53;;
59607;SDS011;45426;44.726;10.390;2022-07-29T13:51:33;8.75;;;4.20;;
59607;SDS011;45426;44.726;10.390;2022-07-29T13:53:59;8.43;;;4.57;;
59607;SDS011;45426;44.726;10.390;2022-07-29T13:56:24;8.55;;;4.35;;
59607;SDS011;45426;44.726;10.390;2022-07-29T13:58:49;11.85;;;5.80;;
59607;SDS011;45426;44.726;10.390;2022-07-29T14:01:15;13.93;;;5.75;;
59607;SDS011;45426;44.726;10.390;2022-07-29T14:03:40;12.23;;;6.03;;
59607;SDS011;45426;44.726;10.390;2022-07-29T14:06:08;14.63;;;6.65;;
59607;SDS011;45426;44.726;10.390;2022-07-29T14:08:34;9.43;;;4.35;;
59607;SDS011;45426;44.726;10.390;2022-07-29T14:10:59;12.35;;;4.28;;
59607;SDS011;45426;44.726;10.390;2022-07-29T14:13:25;14.35;;;5.40;;
59607;SDS011;45426;44.726;10.390;2022-07-29T14:15:50;14.50;;;5.82;;
59607;SDS011;45426;44.726;10.390;2022-07-29T14:18:16;16.17;;;6.32;;
59607;SDS011;45426;44.726;10.390;2022-07-29T14:20:41;11.57;;;5.78;;
59607;SDS011;45426;44.726;10.390;2022-07-29T14:23:06;11.43;;;5.75;;
59607;SDS011;45426;44.726;10.390;2022-07-29T14:25:32;11.30;;;6.50;;
59607;SDS011;45426;44.726;10.390;2022-07-29T14:27:57;9.10;;;5.25;;
59607;SDS011;45426;44.726;10.390;2022-07-29T14:30:23;11.05;;;5.35;;
59607;SDS011;45426;44.726;10.390;2022-07-29T14:32:48;10.65;;;5.15;;
59607;SDS011;45426;44.726;10.390;2022-07-29T14:35:14;8.63;;;4.65;;
59607;SDS011;45426;44.726;10.390;2022-07-29T14:37:39;8.57;;;5.28;;
59607;SDS011;45426;44.726;10.390;2022-07-29T14:40:05;8.55;;;5.18;;
59607;SDS011;45426;44.726;10.390;2022-07-29T14:42:31;10.02;;;4.97;;
59607;SDS011;45426;44.726;10.390;2022-07-29T14:44:56;9.63;;;5.30;;
59607;SDS011;45426;44.726;10.390;2022-07-29T14:47:22;10.35;;;5.38;;
59607;SDS011;45426;44.726;10.390;2022-07-29T14:49:48;11.55;;;5.70;;
59607;SDS011;45426;44.726;10.390;2022-07-29T14:52:14;8.82;;;5.32;;
59607;SDS011;45426;44.726;10.390;2022-07-29T14:54:39;11.20;;;5.85;;
59607;SDS011;45426;44.726;10.390;2022-07-29T14:57:05;12.00;;;6.22;;
59607;SDS011;45426;44.726;10.390;2022-07-29T14:59:30;11.93;;;6.13;;
59607;SDS011;45426;44.726;10.390;2022-07-29T15:01:55;10.40;;;6.10;;
59607;SDS011;45426;44.726;10.390;2022-07-29T15:04:21;11.13;;;5.88;;
59607;SDS011;45426;44.726;10.390;2022-07-29T15:06:46;8.20;;;5.30;;
59607;SDS011;45426;44.726;10.390;2022-07-29T15:09:12;7.97;;;4.70;;
59607;SDS011;45426;44.726;10.390;2022-07-29T15:11:38;9.38;;;5.13;;
59607;SDS011;45426;44.726;10.390;2022-07-29T15:14:03;10.18;;;5.18;;
59607;SDS011;45426;44.726;10.390;2022-07-29T15:16:29;9.77;;;5.30;;
59607;SDS011;45426;44.726;10.390;2022-07-29T15:18:54;11.48;;;6.72;;
59607;SDS011;45426;44.726;10.390;2022-07-29T15:21:22;13.43;;;6.70;;
59607;SDS011;45426;44.726;10.390;2022-07-29T15:23:48;13.07;;;6.97;;
59607;SDS011;45426;44.726;10.390;2022-07-29T15:26:13;16.98;;;6.18;;
59607;SDS011;45426;44.726;10.390;2022-07-29T15:28:39;9.75;;;5.32;;